This is the latest recevied weather packets stored in our database for station/object W4MLN-1. If no packets are shown the sender has not sent any weather packets the latest 10 day(s).
| Time | Temp. | Humidity | Pressure | Rain* | Wind** | Luminosity | Snow |
|---|---|---|---|---|---|---|---|
| 1777855617 | 9.44° C | 51% | 1015.8 hPa | 0 mm | - | 0 W/m² | - |
| 1777855318 | 9.44° C | 48% | 1015.8 hPa | 0 mm | - | 0 W/m² | - |
| 1777855017 | 10° C | 49% | 1015.8 hPa | 0 mm | - | 0 W/m² | - |
| 1777854718 | 10.56° C | 47% | 1015.8 hPa | 0 mm | - | 0 W/m² | - |
| 1777854415 | 10.56° C | 44% | 1015.7 hPa | 0 mm | - | 0 W/m² | - |
| 1777854115 | 11.11° C | 44% | 1015.7 hPa | 0 mm | - | 2 W/m² | - |
| 1777853812 | 11.11° C | 41% | 1015.7 hPa | 0 mm | - | 4 W/m² | - |
| 1777853511 | 11.67° C | 41% | 1015.6 hPa | 0 mm | - | 6 W/m² | - |
| 1777853209 | 11.67° C | 41% | 1015.6 hPa | 0 mm | - | 10 W/m² | - |
| 1777852909 | 12.22° C | 39% | 1015.6 hPa | 0 mm | - | 13 W/m² | - |
| 1777852610 | 12.22° C | 37% | 1015.6 hPa | 0 mm | - | 18 W/m² | - |
| 1777852309 | 12.22° C | 37% | 1015.6 hPa | 0 mm | - | 21 W/m² | - |
| 1777852010 | 12.78° C | 37% | 1015.6 hPa | 0 mm | - | 25 W/m² | - |
| 1777851709 | 12.78° C | 35% | 1015.6 hPa | 0 mm | - | 29 W/m² | - |
| 1777851410 | 13.33° C | 35% | 1015.4 hPa | 0 mm | - | 32 W/m² | - |
| 1777851109 | 13.33° C | 33% | 1015.4 hPa | 0 mm | - | 36 W/m² | - |
| 1777850807 | 13.89° C | 33% | 1015.3 hPa | 0 mm | - | 57 W/m² | - |
| 1777850504 | 13.89° C | 33% | 1015.3 hPa | 0 mm | - | 77 W/m² | - |
| 1777850203 | 13.89° C | 33% | 1015.3 hPa | 0 mm | - | 89 W/m² | - |
| 1777849904 | 13.89° C | 32% | 1015.3 hPa | 0 mm | - | 101 W/m² | - |
| 1777849603 | 13.89° C | 32% | 1015.3 hPa | 0 mm | - | 117 W/m² | - |
| 1777849304 | 14.44° C | 33% | 1015.3 hPa | 0 mm | - | 134 W/m² | - |
| 1777849004 | 14.44° C | 31% | 1015.3 hPa | 0 mm | - | 131 W/m² | - |
| 1777848704 | 14.44° C | 32% | 1015.3 hPa | 0 mm | - | 170 W/m² | - |
| 1777848405 | 14.44° C | 36% | 1015.3 hPa | 0 mm | - | 189 W/m² | - |
* Rain latest hour (hover to see other rain measurements)
** Current wind speed in m/s (hover to see current wind gust speed)